sensor_id;sensor_type;location;lat;lon;timestamp;P1;durP1;ratioP1;P2;durP2;ratioP2
16832;SDS011;8533;48.426;10.868;2022-09-03T00:01:28;2.03;;;1.70;;
16832;SDS011;8533;48.426;10.868;2022-09-03T00:03:58;1.60;;;1.50;;
16832;SDS011;8533;48.426;10.868;2022-09-03T00:09:14;1.73;;;1.60;;
16832;SDS011;8533;48.426;10.868;2022-09-03T00:16:58;2.67;;;1.70;;
16832;SDS011;8533;48.426;10.868;2022-09-03T00:22:03;2.33;;;1.80;;
16832;SDS011;8533;48.426;10.868;2022-09-03T00:24:37;1.87;;;1.77;;
16832;SDS011;8533;48.426;10.868;2022-09-03T00:27:08;1.50;;;1.40;;
16832;SDS011;8533;48.426;10.868;2022-09-03T00:29:51;1.90;;;1.80;;
16832;SDS011;8533;48.426;10.868;2022-09-03T00:34:49;2.27;;;1.63;;
16832;SDS011;8533;48.426;10.868;2022-09-03T00:37:18;1.82;;;1.72;;
16832;SDS011;8533;48.426;10.868;2022-09-03T00:39:45;2.10;;;1.80;;
16832;SDS011;8533;48.426;10.868;2022-09-03T00:52:48;1.60;;;1.50;;
16832;SDS011;8533;48.426;10.868;2022-09-03T00:55:46;1.95;;;1.80;;
16832;SDS011;8533;48.426;10.868;2022-09-03T00:58:29;1.87;;;1.67;;
16832;SDS011;8533;48.426;10.868;2022-09-03T01:01:15;1.90;;;1.70;;
16832;SDS011;8533;48.426;10.868;2022-09-03T01:06:23;1.70;;;1.60;;
16832;SDS011;8533;48.426;10.868;2022-09-03T01:09:08;1.90;;;1.80;;
16832;SDS011;8533;48.426;10.868;2022-09-03T01:14:40;1.70;;;1.60;;
16832;SDS011;8533;48.426;10.868;2022-09-03T01:25:37;3.40;;;1.50;;
16832;SDS011;8533;48.426;10.868;2022-09-03T01:28:22;2.00;;;1.80;;
16832;SDS011;8533;48.426;10.868;2022-09-03T01:31:13;2.23;;;1.90;;
16832;SDS011;8533;48.426;10.868;2022-09-03T01:33:39;1.80;;;1.70;;
16832;SDS011;8533;48.426;10.868;2022-09-03T01:36:11;1.90;;;1.80;;
16832;SDS011;8533;48.426;10.868;2022-09-03T01:49:39;2.30;;;1.90;;
16832;SDS011;8533;48.426;10.868;2022-09-03T01:52:22;2.07;;;1.90;;
16832;SDS011;8533;48.426;10.868;2022-09-03T01:57:55;2.75;;;2.50;;
16832;SDS011;8533;48.426;10.868;2022-09-03T02:02:53;2.13;;;1.97;;
16832;SDS011;8533;48.426;10.868;2022-09-03T02:05:26;2.30;;;2.07;;
16832;SDS011;8533;48.426;10.868;2022-09-03T02:08:01;3.27;;;2.30;;
16832;SDS011;8533;48.426;10.868;2022-09-03T02:13:01;2.10;;;1.90;;
16832;SDS011;8533;48.426;10.868;2022-09-03T02:15:30;2.50;;;2.17;;
16832;SDS011;8533;48.426;10.868;2022-09-03T02:18:00;3.53;;;2.20;;
16832;SDS011;8533;48.426;10.868;2022-09-03T02:20:29;2.73;;;2.13;;
16832;SDS011;8533;48.426;10.868;2022-09-03T02:22:57;2.40;;;2.20;;
16832;SDS011;8533;48.426;10.868;2022-09-03T02:25:28;2.23;;;2.07;;
16832;SDS011;8533;48.426;10.868;2022-09-03T02:27:56;2.77;;;2.23;;
16832;SDS011;8533;48.426;10.868;2022-09-03T02:30:24;2.10;;;1.90;;
16832;SDS011;8533;48.426;10.868;2022-09-03T02:32:52;3.23;;;2.30;;
16832;SDS011;8533;48.426;10.868;2022-09-03T02:35:19;2.53;;;2.13;;
16832;SDS011;8533;48.426;10.868;2022-09-03T02:40:15;2.93;;;2.50;;
16832;SDS011;8533;48.426;10.868;2022-09-03T02:42:43;2.07;;;1.97;;
16832;SDS011;8533;48.426;10.868;2022-09-03T02:45:18;2.13;;;1.93;;
16832;SDS011;8533;48.426;10.868;2022-09-03T02:47:46;2.17;;;2.07;;
16832;SDS011;8533;48.426;10.868;2022-09-03T02:50:16;3.53;;;2.10;;
16832;SDS011;8533;48.426;10.868;2022-09-03T02:52:44;3.47;;;2.50;;
16832;SDS011;8533;48.426;10.868;2022-09-03T02:55:12;2.27;;;2.07;;
16832;SDS011;8533;48.426;10.868;2022-09-03T02:57:40;2.40;;;2.20;;
16832;SDS011;8533;48.426;10.868;2022-09-03T03:00:07;2.80;;;2.10;;
16832;SDS011;8533;48.426;10.868;2022-09-03T03:02:35;2.27;;;2.10;;
16832;SDS011;8533;48.426;10.868;2022-09-03T03:05:03;3.40;;;2.27;;
16832;SDS011;8533;48.426;10.868;2022-09-03T03:07:33;2.40;;;2.20;;
16832;SDS011;8533;48.426;10.868;2022-09-03T03:10:03;2.30;;;2.00;;
16832;SDS011;8533;48.426;10.868;2022-09-03T03:12:30;2.30;;;2.10;;
16832;SDS011;8533;48.426;10.868;2022-09-03T03:14:58;2.43;;;2.10;;
16832;SDS011;8533;48.426;10.868;2022-09-03T03:17:25;2.40;;;2.20;;
16832;SDS011;8533;48.426;10.868;2022-09-03T03:19:53;2.60;;;2.40;;
16832;SDS011;8533;48.426;10.868;2022-09-03T03:22:21;2.53;;;2.30;;
16832;SDS011;8533;48.426;10.868;2022-09-03T03:24:48;2.30;;;2.10;;
16832;SDS011;8533;48.426;10.868;2022-09-03T03:27:17;2.47;;;2.27;;
16832;SDS011;8533;48.426;10.868;2022-09-03T03:29:44;2.50;;;2.30;;
16832;SDS011;8533;48.426;10.868;2022-09-03T03:32:12;2.70;;;2.37;;
16832;SDS011;8533;48.426;10.868;2022-09-03T03:34:39;2.30;;;2.10;;
16832;SDS011;8533;48.426;10.868;2022-09-03T03:37:06;2.60;;;2.40;;
16832;SDS011;8533;48.426;10.868;2022-09-03T03:39:34;3.90;;;2.30;;
16832;SDS011;8533;48.426;10.868;2022-09-03T03:42:01;3.33;;;2.60;;
16832;SDS011;8533;48.426;10.868;2022-09-03T03:44:29;2.50;;;2.30;;
16832;SDS011;8533;48.426;10.868;2022-09-03T03:46:56;2.67;;;2.47;;
16832;SDS011;8533;48.426;10.868;2022-09-03T03:49:23;2.97;;;2.40;;
16832;SDS011;8533;48.426;10.868;2022-09-03T03:51:51;2.70;;;2.50;;
16832;SDS011;8533;48.426;10.868;2022-09-03T03:54:18;4.00;;;2.30;;
16832;SDS011;8533;48.426;10.868;2022-09-03T03:56:46;2.40;;;2.20;;
16832;SDS011;8533;48.426;10.868;2022-09-03T03:59:14;2.60;;;2.40;;
16832;SDS011;8533;48.426;10.868;2022-09-03T04:01:42;2.73;;;2.47;;
16832;SDS011;8533;48.426;10.868;2022-09-03T04:04:10;2.43;;;2.20;;
16832;SDS011;8533;48.426;10.868;2022-09-03T04:06:37;3.77;;;2.53;;
16832;SDS011;8533;48.426;10.868;2022-09-03T04:09:04;2.13;;;2.00;;
16832;SDS011;8533;48.426;10.868;2022-09-03T04:11:32;2.77;;;2.47;;
16832;SDS011;8533;48.426;10.868;2022-09-03T04:14:01;3.60;;;2.60;;
16832;SDS011;8533;48.426;10.868;2022-09-03T04:16:28;2.67;;;2.30;;
16832;SDS011;8533;48.426;10.868;2022-09-03T04:18:57;2.50;;;2.10;;
16832;SDS011;8533;48.426;10.868;2022-09-03T04:21:25;2.60;;;2.40;;
16832;SDS011;8533;48.426;10.868;2022-09-03T04:23:55;2.57;;;2.37;;
16832;SDS011;8533;48.426;10.868;2022-09-03T04:26:27;3.27;;;2.20;;
16832;SDS011;8533;48.426;10.868;2022-09-03T04:31:26;2.40;;;2.20;;
16832;SDS011;8533;48.426;10.868;2022-09-03T04:33:54;2.47;;;2.27;;
16832;SDS011;8533;48.426;10.868;2022-09-03T04:36:23;4.57;;;2.60;;
16832;SDS011;8533;48.426;10.868;2022-09-03T04:38:53;3.13;;;2.43;;
16832;SDS011;8533;48.426;10.868;2022-09-03T04:41:24;2.80;;;2.50;;
16832;SDS011;8533;48.426;10.868;2022-09-03T04:43:54;2.60;;;2.40;;
16832;SDS011;8533;48.426;10.868;2022-09-03T04:46:23;2.90;;;2.30;;
16832;SDS011;8533;48.426;10.868;2022-09-03T04:48:54;2.83;;;2.60;;
16832;SDS011;8533;48.426;10.868;2022-09-03T04:51:23;2.93;;;2.63;;
16832;SDS011;8533;48.426;10.868;2022-09-03T04:53:55;3.30;;;3.00;;
16832;SDS011;8533;48.426;10.868;2022-09-03T04:56:29;2.73;;;2.50;;
16832;SDS011;8533;48.426;10.868;2022-09-03T04:58:59;3.45;;;2.87;;
16832;SDS011;8533;48.426;10.868;2022-09-03T05:01:30;4.80;;;2.70;;
16832;SDS011;8533;48.426;10.868;2022-09-03T05:03:59;3.10;;;2.60;;
16832;SDS011;8533;48.426;10.868;2022-09-03T05:06:29;3.30;;;3.00;;
16832;SDS011;8533;48.426;10.868;2022-09-03T05:08:57;3.77;;;2.70;;
16832;SDS011;8533;48.426;10.868;2022-09-03T05:11:26;5.13;;;2.70;;
16832;SDS011;8533;48.426;10.868;2022-09-03T05:13:55;3.30;;;2.60;;
16832;SDS011;8533;48.426;10.868;2022-09-03T05:16:25;3.30;;;3.00;;
16832;SDS011;8533;48.426;10.868;2022-09-03T05:18:55;4.63;;;2.90;;
16832;SDS011;8533;48.426;10.868;2022-09-03T05:21:28;3.45;;;3.15;;
16832;SDS011;8533;48.426;10.868;2022-09-03T05:23:56;2.90;;;2.70;;
16832;SDS011;8533;48.426;10.868;2022-09-03T05:26:26;3.90;;;2.80;;
16832;SDS011;8533;48.426;10.868;2022-09-03T05:28:56;3.70;;;3.40;;
16832;SDS011;8533;48.426;10.868;2022-09-03T05:31:26;3.13;;;2.83;;
16832;SDS011;8533;48.426;10.868;2022-09-03T05:33:56;3.93;;;3.00;;
16832;SDS011;8533;48.426;10.868;2022-09-03T05:36:27;3.00;;;2.70;;
16832;SDS011;8533;48.426;10.868;2022-09-03T05:38:57;3.00;;;2.70;;
16832;SDS011;8533;48.426;10.868;2022-09-03T05:41:25;3.97;;;2.93;;
16832;SDS011;8533;48.426;10.868;2022-09-03T05:43:54;4.10;;;2.70;;
16832;SDS011;8533;48.426;10.868;2022-09-03T05:46:28;3.17;;;2.57;;
16832;SDS011;8533;48.426;10.868;2022-09-03T05:49:01;3.20;;;2.90;;
16832;SDS011;8533;48.426;10.868;2022-09-03T05:51:31;2.60;;;2.40;;
16832;SDS011;8533;48.426;10.868;2022-09-03T05:53:59;2.77;;;2.53;;
16832;SDS011;8533;48.426;10.868;2022-09-03T05:56:28;2.97;;;2.60;;
16832;SDS011;8533;48.426;10.868;2022-09-03T05:58:58;3.57;;;2.87;;
16832;SDS011;8533;48.426;10.868;2022-09-03T06:01:32;7.97;;;3.23;;
16832;SDS011;8533;48.426;10.868;2022-09-03T06:06:33;3.53;;;3.00;;
16832;SDS011;8533;48.426;10.868;2022-09-03T06:09:04;4.23;;;3.13;;
16832;SDS011;8533;48.426;10.868;2022-09-03T06:11:34;3.53;;;3.20;;
16832;SDS011;8533;48.426;10.868;2022-09-03T06:14:03;4.30;;;3.20;;
16832;SDS011;8533;48.426;10.868;2022-09-03T06:16:33;4.77;;;3.30;;
16832;SDS011;8533;48.426;10.868;2022-09-03T06:19:03;5.73;;;3.57;;
16832;SDS011;8533;48.426;10.868;2022-09-03T06:21:33;6.03;;;3.77;;
16832;SDS011;8533;48.426;10.868;2022-09-03T06:24:01;5.53;;;4.27;;
16832;SDS011;8533;48.426;10.868;2022-09-03T06:26:29;4.27;;;3.47;;
16832;SDS011;8533;48.426;10.868;2022-09-03T06:28:57;4.47;;;3.80;;
16832;SDS011;8533;48.426;10.868;2022-09-03T06:31:24;5.03;;;4.10;;
16832;SDS011;8533;48.426;10.868;2022-09-03T06:33:52;4.97;;;4.03;;
16832;SDS011;8533;48.426;10.868;2022-09-03T06:36:20;6.13;;;4.37;;
16832;SDS011;8533;48.426;10.868;2022-09-03T06:38:54;5.13;;;4.47;;
16832;SDS011;8533;48.426;10.868;2022-09-03T06:41:26;8.00;;;4.13;;
16832;SDS011;8533;48.426;10.868;2022-09-03T06:46:29;7.20;;;4.70;;
16832;SDS011;8533;48.426;10.868;2022-09-03T06:48:59;6.50;;;4.93;;
16832;SDS011;8533;48.426;10.868;2022-09-03T06:51:28;7.30;;;5.10;;
16832;SDS011;8533;48.426;10.868;2022-09-03T06:54:00;8.57;;;4.53;;
16832;SDS011;8533;48.426;10.868;2022-09-03T06:59:03;7.60;;;5.10;;
16832;SDS011;8533;48.426;10.868;2022-09-03T07:01:31;7.47;;;4.93;;
16832;SDS011;8533;48.426;10.868;2022-09-03T07:04:00;8.73;;;5.77;;
16832;SDS011;8533;48.426;10.868;2022-09-03T07:06:33;9.67;;;5.97;;
16832;SDS011;8533;48.426;10.868;2022-09-03T07:11:32;5.87;;;5.27;;
16832;SDS011;8533;48.426;10.868;2022-09-03T07:14:03;8.77;;;6.30;;
16832;SDS011;8533;48.426;10.868;2022-09-03T07:16:34;10.17;;;7.23;;
16832;SDS011;8533;48.426;10.868;2022-09-03T07:19:03;11.63;;;6.40;;
16832;SDS011;8533;48.426;10.868;2022-09-03T07:21:32;7.87;;;6.43;;
16832;SDS011;8533;48.426;10.868;2022-09-03T07:24:06;11.60;;;7.20;;
16832;SDS011;8533;48.426;10.868;2022-09-03T07:26:36;8.37;;;6.73;;
16832;SDS011;8533;48.426;10.868;2022-09-03T07:29:06;8.10;;;6.37;;
16832;SDS011;8533;48.426;10.868;2022-09-03T07:31:35;6.67;;;5.63;;
16832;SDS011;8533;48.426;10.868;2022-09-03T07:34:11;9.93;;;6.17;;
16832;SDS011;8533;48.426;10.868;2022-09-03T07:36:40;8.07;;;5.87;;
16832;SDS011;8533;48.426;10.868;2022-09-03T07:41:39;12.37;;;6.00;;
16832;SDS011;8533;48.426;10.868;2022-09-03T07:44:11;6.53;;;5.63;;
16832;SDS011;8533;48.426;10.868;2022-09-03T07:46:40;11.90;;;5.70;;
16832;SDS011;8533;48.426;10.868;2022-09-03T07:49:10;8.53;;;6.20;;
16832;SDS011;8533;48.426;10.868;2022-09-03T07:51:38;7.20;;;5.73;;
16832;SDS011;8533;48.426;10.868;2022-09-03T07:54:07;7.53;;;5.17;;
16832;SDS011;8533;48.426;10.868;2022-09-03T07:56:36;9.57;;;5.43;;
16832;SDS011;8533;48.426;10.868;2022-09-03T07:59:04;6.87;;;5.17;;
16832;SDS011;8533;48.426;10.868;2022-09-03T08:01:33;8.07;;;5.30;;
16832;SDS011;8533;48.426;10.868;2022-09-03T08:04:02;6.87;;;5.30;;
16832;SDS011;8533;48.426;10.868;2022-09-03T08:09:00;5.63;;;4.97;;
16832;SDS011;8533;48.426;10.868;2022-09-03T08:11:29;8.10;;;5.30;;
16832;SDS011;8533;48.426;10.868;2022-09-03T08:14:03;5.50;;;4.60;;
16832;SDS011;8533;48.426;10.868;2022-09-03T08:16:33;5.97;;;5.07;;
16832;SDS011;8533;48.426;10.868;2022-09-03T08:19:03;8.25;;;5.10;;
16832;SDS011;8533;48.426;10.868;2022-09-03T08:21:32;6.20;;;5.03;;
16832;SDS011;8533;48.426;10.868;2022-09-03T08:24:00;4.87;;;4.37;;
16832;SDS011;8533;48.426;10.868;2022-09-03T08:26:31;4.97;;;4.47;;
16832;SDS011;8533;48.426;10.868;2022-09-03T08:29:00;8.10;;;4.83;;
16832;SDS011;8533;48.426;10.868;2022-09-03T08:31:29;6.23;;;4.70;;
16832;SDS011;8533;48.426;10.868;2022-09-03T08:33:58;5.50;;;4.40;;
16832;SDS011;8533;48.426;10.868;2022-09-03T08:36:32;5.10;;;4.23;;
16832;SDS011;8533;48.426;10.868;2022-09-03T08:39:03;5.43;;;4.37;;
16832;SDS011;8533;48.426;10.868;2022-09-03T08:44:39;4.70;;;4.20;;
16832;SDS011;8533;48.426;10.868;2022-09-03T08:47:20;5.53;;;4.60;;
16832;SDS011;8533;48.426;10.868;2022-09-03T08:55:27;6.40;;;4.97;;
16832;SDS011;8533;48.426;10.868;2022-09-03T08:58:09;6.50;;;4.90;;
16832;SDS011;8533;48.426;10.868;2022-09-03T09:09:16;4.45;;;3.90;;
16832;SDS011;8533;48.426;10.868;2022-09-03T09:20:54;6.50;;;4.30;;
16832;SDS011;8533;48.426;10.868;2022-09-03T09:23:29;4.43;;;4.00;;
16832;SDS011;8533;48.426;10.868;2022-09-03T09:25:59;5.13;;;4.10;;
16832;SDS011;8533;48.426;10.868;2022-09-03T09:28:35;6.20;;;3.70;;
16832;SDS011;8533;48.426;10.868;2022-09-03T09:33:36;4.20;;;3.10;;
16832;SDS011;8533;48.426;10.868;2022-09-03T09:36:05;4.20;;;3.63;;
16832;SDS011;8533;48.426;10.868;2022-09-03T09:38:36;3.73;;;3.30;;
16832;SDS011;8533;48.426;10.868;2022-09-03T09:41:09;4.20;;;3.60;;
16832;SDS011;8533;48.426;10.868;2022-09-03T09:43:39;4.00;;;3.53;;
16832;SDS011;8533;48.426;10.868;2022-09-03T09:46:15;4.13;;;3.37;;
16832;SDS011;8533;48.426;10.868;2022-09-03T09:51:19;4.00;;;3.07;;
16832;SDS011;8533;48.426;10.868;2022-09-03T09:53:58;4.17;;;3.30;;
16832;SDS011;8533;48.426;10.868;2022-09-03T09:56:30;3.10;;;2.80;;
16832;SDS011;8533;48.426;10.868;2022-09-03T09:59:04;3.13;;;2.57;;
16832;SDS011;8533;48.426;10.868;2022-09-03T10:04:12;2.67;;;2.37;;
16832;SDS011;8533;48.426;10.868;2022-09-03T10:06:59;3.90;;;2.73;;
16832;SDS011;8533;48.426;10.868;2022-09-03T10:09:27;2.97;;;2.67;;
16832;SDS011;8533;48.426;10.868;2022-09-03T10:12:03;2.80;;;2.60;;
16832;SDS011;8533;48.426;10.868;2022-09-03T10:17:41;2.63;;;2.40;;
16832;SDS011;8533;48.426;10.868;2022-09-03T10:23:15;3.10;;;2.80;;
16832;SDS011;8533;48.426;10.868;2022-09-03T10:30:44;2.97;;;2.50;;
16832;SDS011;8533;48.426;10.868;2022-09-03T10:33:29;2.97;;;2.23;;
16832;SDS011;8533;48.426;10.868;2022-09-03T10:36:18;2.35;;;2.15;;
16832;SDS011;8533;48.426;10.868;2022-09-03T10:41:32;2.47;;;2.20;;
16832;SDS011;8533;48.426;10.868;2022-09-03T10:49:58;2.60;;;2.40;;
16832;SDS011;8533;48.426;10.868;2022-09-03T10:52:33;3.27;;;2.50;;
16832;SDS011;8533;48.426;10.868;2022-09-03T11:00:11;2.70;;;2.50;;
16832;SDS011;8533;48.426;10.868;2022-09-03T11:07:52;2.37;;;1.97;;
16832;SDS011;8533;48.426;10.868;2022-09-03T11:10:33;2.20;;;1.87;;
16832;SDS011;8533;48.426;10.868;2022-09-03T11:13:00;2.10;;;1.90;;
16832;SDS011;8533;48.426;10.868;2022-09-03T11:18:26;2.33;;;2.13;;
16832;SDS011;8533;48.426;10.868;2022-09-03T11:20:56;2.20;;;2.00;;
16832;SDS011;8533;48.426;10.868;2022-09-03T11:23:26;2.10;;;1.90;;
16832;SDS011;8533;48.426;10.868;2022-09-03T11:25:59;2.60;;;1.80;;
16832;SDS011;8533;48.426;10.868;2022-09-03T11:42:10;1.80;;;1.70;;
16832;SDS011;8533;48.426;10.868;2022-09-03T11:44:41;2.50;;;2.00;;
16832;SDS011;8533;48.426;10.868;2022-09-03T11:47:14;1.70;;;1.60;;
16832;SDS011;8533;48.426;10.868;2022-09-03T11:49:44;3.50;;;2.00;;
16832;SDS011;8533;48.426;10.868;2022-09-03T11:52:25;1.57;;;1.47;;
16832;SDS011;8533;48.426;10.868;2022-09-03T11:57:28;1.63;;;1.50;;
16832;SDS011;8533;48.426;10.868;2022-09-03T12:13:17;4.03;;;1.33;;
16832;SDS011;8533;48.426;10.868;2022-09-03T12:18:49;1.40;;;1.30;;
16832;SDS011;8533;48.426;10.868;2022-09-03T12:21:18;1.40;;;1.30;;
16832;SDS011;8533;48.426;10.868;2022-09-03T12:23:47;1.40;;;1.30;;
16832;SDS011;8533;48.426;10.868;2022-09-03T12:26:18;1.23;;;1.20;;
16832;SDS011;8533;48.426;10.868;2022-09-03T12:28:50;1.40;;;1.30;;
16832;SDS011;8533;48.426;10.868;2022-09-03T12:31:27;1.13;;;1.13;;
16832;SDS011;8533;48.426;10.868;2022-09-03T12:36:26;1.10;;;1.10;;
16832;SDS011;8533;48.426;10.868;2022-09-03T12:39:12;1.40;;;1.30;;
16832;SDS011;8533;48.426;10.868;2022-09-03T12:49:37;1.27;;;1.17;;
16832;SDS011;8533;48.426;10.868;2022-09-03T12:52:07;1.53;;;1.43;;
16832;SDS011;8533;48.426;10.868;2022-09-03T12:57:10;1.50;;;1.40;;
16832;SDS011;8533;48.426;10.868;2022-09-03T12:59:41;1.33;;;1.30;;
16832;SDS011;8533;48.426;10.868;2022-09-03T13:02:19;1.50;;;1.40;;
16832;SDS011;8533;48.426;10.868;2022-09-03T13:07:20;1.30;;;1.20;;
16832;SDS011;8533;48.426;10.868;2022-09-03T13:12:41;2.87;;;1.30;;
16832;SDS011;8533;48.426;10.868;2022-09-03T13:15:07;1.42;;;1.32;;
16832;SDS011;8533;48.426;10.868;2022-09-03T13:20:19;1.40;;;1.30;;
16832;SDS011;8533;48.426;10.868;2022-09-03T13:28:20;1.90;;;1.80;;
16832;SDS011;8533;48.426;10.868;2022-09-03T13:33:52;1.40;;;1.30;;
16832;SDS011;8533;48.426;10.868;2022-09-03T13:36:23;1.70;;;1.00;;
16832;SDS011;8533;48.426;10.868;2022-09-03T13:39:09;1.87;;;1.27;;
16832;SDS011;8533;48.426;10.868;2022-09-03T13:44:40;4.00;;;1.70;;
16832;SDS011;8533;48.426;10.868;2022-09-03T13:47:25;1.17;;;1.10;;
16832;SDS011;8533;48.426;10.868;2022-09-03T13:55:27;1.20;;;1.10;;
16832;SDS011;8533;48.426;10.868;2022-09-03T13:58:00;2.40;;;1.20;;
16832;SDS011;8533;48.426;10.868;2022-09-03T14:00:33;2.27;;;1.10;;
16832;SDS011;8533;48.426;10.868;2022-09-03T14:03:06;2.53;;;1.20;;
16832;SDS011;8533;48.426;10.868;2022-09-03T14:05:54;1.40;;;1.20;;
16832;SDS011;8533;48.426;10.868;2022-09-03T14:08:52;0.90;;;0.90;;
16832;SDS011;8533;48.426;10.868;2022-09-03T14:13:47;1.70;;;1.13;;
16832;SDS011;8533;48.426;10.868;2022-09-03T14:22:17;1.33;;;1.23;;
16832;SDS011;8533;48.426;10.868;2022-09-03T14:24:51;1.50;;;1.40;;
16832;SDS011;8533;48.426;10.868;2022-09-03T14:27:28;1.47;;;1.37;;
16832;SDS011;8533;48.426;10.868;2022-09-03T14:35:34;1.50;;;1.40;;
16832;SDS011;8533;48.426;10.868;2022-09-03T14:41:05;2.27;;;1.30;;
16832;SDS011;8533;48.426;10.868;2022-09-03T14:49:30;1.70;;;1.50;;
16832;SDS011;8533;48.426;10.868;2022-09-03T14:55:24;2.77;;;1.73;;
16832;SDS011;8533;48.426;10.868;2022-09-03T15:13:54;1.60;;;1.50;;
16832;SDS011;8533;48.426;10.868;2022-09-03T15:24:39;3.50;;;1.80;;
16832;SDS011;8533;48.426;10.868;2022-09-03T15:29:36;3.37;;;1.60;;
16832;SDS011;8533;48.426;10.868;2022-09-03T15:37:27;3.17;;;1.70;;
16832;SDS011;8533;48.426;10.868;2022-09-03T15:42:57;2.43;;;1.80;;
16832;SDS011;8533;48.426;10.868;2022-09-03T16:01:33;2.10;;;1.50;;
16832;SDS011;8533;48.426;10.868;2022-09-03T16:10:12;1.73;;;1.60;;
16832;SDS011;8533;48.426;10.868;2022-09-03T16:15:39;1.60;;;1.50;;
16832;SDS011;8533;48.426;10.868;2022-09-03T16:18:10;1.60;;;1.50;;
16832;SDS011;8533;48.426;10.868;2022-09-03T16:20:45;2.10;;;1.57;;
16832;SDS011;8533;48.426;10.868;2022-09-03T16:28:18;2.53;;;1.90;;
16832;SDS011;8533;48.426;10.868;2022-09-03T16:36:01;1.70;;;1.60;;
16832;SDS011;8533;48.426;10.868;2022-09-03T16:41:25;1.50;;;1.40;;
16832;SDS011;8533;48.426;10.868;2022-09-03T16:51:53;1.65;;;1.40;;
16832;SDS011;8533;48.426;10.868;2022-09-03T17:05:25;2.40;;;1.70;;
16832;SDS011;8533;48.426;10.868;2022-09-03T17:10:45;1.70;;;1.40;;
16832;SDS011;8533;48.426;10.868;2022-09-03T17:29:32;3.87;;;1.93;;
16832;SDS011;8533;48.426;10.868;2022-09-03T17:35:16;1.63;;;1.53;;
16832;SDS011;8533;48.426;10.868;2022-09-03T17:48:15;1.60;;;1.50;;
16832;SDS011;8533;48.426;10.868;2022-09-03T17:53:20;1.60;;;1.33;;
16832;SDS011;8533;48.426;10.868;2022-09-03T17:55:51;1.90;;;1.70;;
16832;SDS011;8533;48.426;10.868;2022-09-03T18:01:00;2.47;;;1.80;;
16832;SDS011;8533;48.426;10.868;2022-09-03T18:06:25;2.07;;;1.87;;
16832;SDS011;8533;48.426;10.868;2022-09-03T18:12:00;2.40;;;1.90;;
16832;SDS011;8533;48.426;10.868;2022-09-03T18:14:34;2.57;;;1.53;;
16832;SDS011;8533;48.426;10.868;2022-09-03T18:17:13;2.00;;;1.70;;
16832;SDS011;8533;48.426;10.868;2022-09-03T18:20:00;2.33;;;1.80;;
16832;SDS011;8533;48.426;10.868;2022-09-03T18:25:49;2.17;;;1.80;;
16832;SDS011;8533;48.426;10.868;2022-09-03T18:28:47;1.80;;;1.70;;
16832;SDS011;8533;48.426;10.868;2022-09-03T18:31:37;3.00;;;2.30;;
16832;SDS011;8533;48.426;10.868;2022-09-03T18:34:27;2.05;;;1.80;;
16832;SDS011;8533;48.426;10.868;2022-09-03T18:37:10;3.03;;;2.10;;
16832;SDS011;8533;48.426;10.868;2022-09-03T18:39:56;2.35;;;2.00;;
16832;SDS011;8533;48.426;10.868;2022-09-03T18:42:49;3.60;;;2.10;;
16832;SDS011;8533;48.426;10.868;2022-09-03T18:46:04;2.17;;;1.87;;
16832;SDS011;8533;48.426;10.868;2022-09-03T18:48:56;2.40;;;2.03;;
16832;SDS011;8533;48.426;10.868;2022-09-03T18:51:59;3.30;;;2.22;;
16832;SDS011;8533;48.426;10.868;2022-09-03T18:54:59;2.37;;;1.90;;
16832;SDS011;8533;48.426;10.868;2022-09-03T18:57:49;2.67;;;2.10;;
16832;SDS011;8533;48.426;10.868;2022-09-03T19:00:34;2.93;;;1.90;;
16832;SDS011;8533;48.426;10.868;2022-09-03T19:03:37;2.70;;;2.30;;
16832;SDS011;8533;48.426;10.868;2022-09-03T19:06:31;2.73;;;2.10;;
16832;SDS011;8533;48.426;10.868;2022-09-03T19:09:21;2.40;;;1.97;;
16832;SDS011;8533;48.426;10.868;2022-09-03T19:12:08;2.77;;;1.97;;
16832;SDS011;8533;48.426;10.868;2022-09-03T19:23:52;3.40;;;2.83;;
16832;SDS011;8533;48.426;10.868;2022-09-03T19:32:27;4.23;;;2.77;;
16832;SDS011;8533;48.426;10.868;2022-09-03T19:35:16;2.63;;;2.30;;
16832;SDS011;8533;48.426;10.868;2022-09-03T19:47:06;5.40;;;2.70;;
16832;SDS011;8533;48.426;10.868;2022-09-03T19:52:49;3.20;;;2.90;;
16832;SDS011;8533;48.426;10.868;2022-09-03T19:55:47;4.07;;;3.17;;
16832;SDS011;8533;48.426;10.868;2022-09-03T19:58:30;5.33;;;3.47;;
16832;SDS011;8533;48.426;10.868;2022-09-03T20:01:17;6.03;;;3.40;;
16832;SDS011;8533;48.426;10.868;2022-09-03T20:04:13;5.50;;;3.10;;
16832;SDS011;8533;48.426;10.868;2022-09-03T20:06:57;5.77;;;3.50;;
16832;SDS011;8533;48.426;10.868;2022-09-03T20:09:44;5.07;;;3.50;;
16832;SDS011;8533;48.426;10.868;2022-09-03T20:12:33;5.47;;;3.70;;
16832;SDS011;8533;48.426;10.868;2022-09-03T20:15:06;4.33;;;3.30;;
16832;SDS011;8533;48.426;10.868;2022-09-03T20:20:31;5.17;;;3.63;;
16832;SDS011;8533;48.426;10.868;2022-09-03T20:25:43;3.90;;;2.93;;
16832;SDS011;8533;48.426;10.868;2022-09-03T20:31:15;4.35;;;3.00;;
16832;SDS011;8533;48.426;10.868;2022-09-03T20:33:54;3.50;;;2.80;;
16832;SDS011;8533;48.426;10.868;2022-09-03T20:39:19;3.13;;;2.60;;
16832;SDS011;8533;48.426;10.868;2022-09-03T20:47:13;2.80;;;2.40;;
16832;SDS011;8533;48.426;10.868;2022-09-03T20:57:27;2.47;;;2.23;;
16832;SDS011;8533;48.426;10.868;2022-09-03T21:02:31;3.47;;;2.70;;
16832;SDS011;8533;48.426;10.868;2022-09-03T21:07:50;4.70;;;2.50;;
16832;SDS011;8533;48.426;10.868;2022-09-03T21:18:40;3.20;;;2.50;;
16832;SDS011;8533;48.426;10.868;2022-09-03T21:21:23;3.50;;;2.87;;
16832;SDS011;8533;48.426;10.868;2022-09-03T21:26:44;5.35;;;2.70;;
16832;SDS011;8533;48.426;10.868;2022-09-03T21:29:18;5.30;;;2.67;;
16832;SDS011;8533;48.426;10.868;2022-09-03T21:34:29;4.10;;;3.15;;
16832;SDS011;8533;48.426;10.868;2022-09-03T21:39:43;3.93;;;2.83;;
16832;SDS011;8533;48.426;10.868;2022-09-03T21:44:51;4.00;;;2.80;;
16832;SDS011;8533;48.426;10.868;2022-09-03T21:47:20;5.30;;;3.10;;
16832;SDS011;8533;48.426;10.868;2022-09-03T21:49:59;3.83;;;2.97;;
16832;SDS011;8533;48.426;10.868;2022-09-03T21:55:02;4.20;;;3.10;;
16832;SDS011;8533;48.426;10.868;2022-09-03T21:57:40;2.93;;;2.40;;
16832;SDS011;8533;48.426;10.868;2022-09-03T22:00:11;2.90;;;2.37;;
16832;SDS011;8533;48.426;10.868;2022-09-03T22:05:12;5.70;;;3.20;;
16832;SDS011;8533;48.426;10.868;2022-09-03T22:10:43;4.27;;;2.93;;
16832;SDS011;8533;48.426;10.868;2022-09-03T22:13:28;4.83;;;2.98;;
16832;SDS011;8533;48.426;10.868;2022-09-03T22:16:02;4.70;;;2.90;;
16832;SDS011;8533;48.426;10.868;2022-09-03T22:23:56;3.07;;;2.63;;
16832;SDS011;8533;48.426;10.868;2022-09-03T22:26:47;5.00;;;3.20;;
16832;SDS011;8533;48.426;10.868;2022-09-03T22:29:45;3.20;;;2.63;;
16832;SDS011;8533;48.426;10.868;2022-09-03T22:35:11;3.80;;;2.83;;
16832;SDS011;8533;48.426;10.868;2022-09-03T22:43:16;5.07;;;3.43;;
16832;SDS011;8533;48.426;10.868;2022-09-03T22:51:24;4.47;;;3.57;;
16832;SDS011;8533;48.426;10.868;2022-09-03T22:56:40;6.80;;;4.40;;
16832;SDS011;8533;48.426;10.868;2022-09-03T23:04:40;5.43;;;3.60;;
16832;SDS011;8533;48.426;10.868;2022-09-03T23:07:02;5.23;;;3.33;;
16832;SDS011;8533;48.426;10.868;2022-09-03T23:12:15;12.37;;;3.53;;
16832;SDS011;8533;48.426;10.868;2022-09-03T23:17:23;3.43;;;2.90;;
16832;SDS011;8533;48.426;10.868;2022-09-03T23:20:01;4.00;;;3.10;;
16832;SDS011;8533;48.426;10.868;2022-09-03T23:22:57;3.67;;;2.80;;
16832;SDS011;8533;48.426;10.868;2022-09-03T23:27:56;5.27;;;3.23;;
16832;SDS011;8533;48.426;10.868;2022-09-03T23:30:25;4.37;;;3.13;;
16832;SDS011;8533;48.426;10.868;2022-09-03T23:32:54;3.53;;;2.93;;
16832;SDS011;8533;48.426;10.868;2022-09-03T23:35:29;4.13;;;3.03;;
16832;SDS011;8533;48.426;10.868;2022-09-03T23:38:06;4.08;;;3.52;;
16832;SDS011;8533;48.426;10.868;2022-09-03T23:40:51;4.20;;;3.20;;
16832;SDS011;8533;48.426;10.868;2022-09-03T23:46:17;6.00;;;3.60;;